createdAt,value
2023-01-13T00:01:07.849Z,100750.00
2023-01-13T00:11:32.913Z,100745.00
2023-01-13T00:21:54.495Z,100743.00
2023-01-13T00:32:18.201Z,100720.00
2023-01-13T00:42:56.906Z,100739.00
2023-01-13T00:53:19.867Z,100735.00
2023-01-13T01:03:42.557Z,100728.00
2023-01-13T01:14:06.777Z,100752.00
2023-01-13T01:24:28.465Z,100736.00
2023-01-13T01:34:53.325Z,100733.00
2023-01-13T01:45:19.267Z,100723.00
2023-01-13T01:55:43.155Z,100718.00
2023-01-13T02:06:04.844Z,100709.00
2023-01-13T02:16:27.937Z,100705.00
2023-01-13T02:27:19.939Z,100700.00
2023-01-13T02:37:45.696Z,100674.00
2023-01-13T02:48:10.048Z,100687.00
2023-01-13T02:58:35.047Z,100698.00
2023-01-13T03:09:04.498Z,100681.00
2023-01-13T03:19:37.280Z,100681.00
2023-01-13T03:30:02.719Z,100663.00
2023-01-13T03:40:31.011Z,100653.00
2023-01-13T03:50:54.978Z,100671.00
2023-01-13T04:01:21.277Z,100678.00
2023-01-13T04:11:47.728Z,100665.00
2023-01-13T04:22:10.459Z,100672.00
2023-01-13T04:32:32.086Z,100658.00
2023-01-13T04:42:54.807Z,100665.00
2023-01-13T04:53:16.239Z,100677.00
2023-01-13T05:03:38.856Z,100686.00
2023-01-13T05:14:17.597Z,100688.00
2023-01-13T05:24:58.270Z,100677.00
2023-01-13T05:35:20.304Z,100678.00
2023-01-13T05:45:43.181Z,100688.00
2023-01-13T05:56:06.998Z,100704.00
2023-01-13T06:06:29.920Z,100694.00
2023-01-13T06:16:51.435Z,100700.00
2023-01-13T06:27:14.314Z,100700.00
2023-01-13T06:37:36.999Z,100722.00
2023-01-13T06:48:00.796Z,100721.00
2023-01-13T06:58:22.096Z,100698.00
2023-01-13T07:08:44.835Z,100719.00
2023-01-13T07:19:06.138Z,100714.00
2023-01-13T07:29:28.819Z,100707.00
2023-01-13T07:39:50.699Z,100670.00
2023-01-13T07:50:13.676Z,100714.00
2023-01-13T08:00:34.920Z,100721.00
2023-01-13T08:10:59.974Z,100775.00
2023-01-13T08:21:21.572Z,100778.00
2023-01-13T08:31:44.858Z,100799.00
2023-01-13T08:42:07.186Z,100760.00
2023-01-13T08:52:30.466Z,100780.00
2023-01-13T09:02:53.227Z,100800.00
2023-01-13T09:13:17.067Z,100786.00
2023-01-13T09:23:39.641Z,100701.00
2023-01-13T09:34:23.947Z,100732.00
2023-01-13T09:44:50.797Z,100765.00
2023-01-13T09:55:19.331Z,100787.00
2023-01-13T10:05:43.569Z,100797.00
2023-01-13T10:16:25.404Z,100800.00
2023-01-13T10:26:55.853Z,100800.00
2023-01-13T10:37:25.846Z,100792.00
2023-01-13T10:48:07.589Z,100783.00
2023-01-13T10:58:31.707Z,100790.00
2023-01-13T11:08:58.125Z,100786.00
2023-01-13T11:19:23.623Z,100772.00
2023-01-13T11:29:58.666Z,100782.00
2023-01-13T11:40:28.516Z,100783.00
2023-01-13T11:50:55.734Z,100767.00
2023-01-13T12:01:34.213Z,100768.00
2023-01-13T12:12:22.881Z,100778.00
2023-01-13T12:22:48.730Z,100782.00
2023-01-13T12:33:22.199Z,100792.00
2023-01-13T12:44:06.303Z,100790.00
2023-01-13T12:55:09.897Z,100797.00
2023-01-13T13:05:56.844Z,100791.00
2023-01-13T13:16:52.518Z,100811.00
2023-01-13T13:27:20.174Z,100802.00
2023-01-13T13:38:16.845Z,100808.00
2023-01-13T13:48:39.972Z,100815.00
2023-01-13T13:59:01.665Z,100823.00
2023-01-13T14:09:26.833Z,100815.00
2023-01-13T14:19:53.687Z,100834.00
2023-01-13T14:30:20.187Z,100852.00
2023-01-13T14:40:46.813Z,100855.00
2023-01-13T14:51:13.958Z,100871.00
2023-01-13T15:01:39.422Z,100879.00
2023-01-13T15:12:16.649Z,100871.00
2023-01-13T15:22:38.036Z,100885.00
2023-01-13T15:33:00.986Z,100888.00
2023-01-13T15:43:41.176Z,100902.00
2023-01-13T15:54:04.519Z,100914.00
2023-01-13T16:04:26.229Z,100909.00
2023-01-13T16:14:49.647Z,100942.00
2023-01-13T16:25:17.627Z,100952.00
2023-01-13T16:35:43.836Z,100964.00
2023-01-13T16:46:25.585Z,100988.00
2023-01-13T16:56:48.296Z,101001.00
2023-01-13T17:07:10.841Z,101002.00
2023-01-13T17:17:34.057Z,101036.00
2023-01-13T17:27:55.840Z,101034.00
2023-01-13T17:38:18.705Z,101049.00
2023-01-13T17:48:40.368Z,101056.00
2023-01-13T17:59:03.437Z,101051.00
2023-01-13T18:09:25.952Z,101067.00
2023-01-13T18:20:06.307Z,101087.00
2023-01-13T18:30:28.169Z,101088.00
2023-01-13T18:40:51.053Z,101077.00
2023-01-13T18:51:12.817Z,101106.00
2023-01-13T19:01:37.856Z,101104.00
2023-01-13T19:12:01.189Z,101120.00
2023-01-13T19:22:27.392Z,101140.00
2023-01-13T19:32:49.540Z,101156.00
2023-01-13T19:43:29.844Z,101177.00
2023-01-13T19:53:51.315Z,101169.00
2023-01-13T20:04:17.069Z,101192.00
2023-01-13T20:14:38.741Z,101197.00
2023-01-13T20:25:01.737Z,101201.00
2023-01-13T20:35:24.316Z,101214.00
2023-01-13T20:45:47.153Z,101233.00
2023-01-13T20:56:09.479Z,101233.00
2023-01-13T21:06:33.039Z,101233.00
2023-01-13T21:16:54.359Z,101239.00
2023-01-13T21:27:17.695Z,101255.00
2023-01-13T21:37:41.996Z,101257.00
2023-01-13T21:48:05.119Z,101274.00
2023-01-13T21:58:27.239Z,101286.00
2023-01-13T22:08:50.417Z,101297.00
2023-01-13T22:19:12.246Z,101310.00
2023-01-13T22:29:37.604Z,101315.00
2023-01-13T22:39:59.222Z,101318.00
2023-01-13T22:50:22.759Z,101347.00
2023-01-13T23:00:44.425Z,101358.00
2023-01-13T23:11:12.151Z,101373.00
2023-01-13T23:21:36.045Z,101376.00
2023-01-13T23:31:59.333Z,101384.00
2023-01-13T23:42:21.357Z,101387.00
2023-01-13T23:52:44.458Z,101392.00
